sensor_id;sensor_type;location;lat;lon;timestamp;pressure;altitude;pressure_sealevel;temperature;humidity
46876;BME280;32866;50.160;14.768;2022-07-04T00:00:11;99373.09;;;17.20;100.00
46876;BME280;32866;50.160;14.768;2022-07-04T00:02:37;99381.84;;;17.13;100.00
46876;BME280;32866;50.160;14.768;2022-07-04T00:05:03;99374.81;;;16.97;100.00
46876;BME280;32866;50.160;14.768;2022-07-04T00:07:28;99382.38;;;16.96;100.00
46876;BME280;32866;50.160;14.768;2022-07-04T00:09:54;99384.50;;;17.07;100.00
46876;BME280;32866;50.160;14.768;2022-07-04T00:12:19;99353.78;;;16.69;100.00
46876;BME280;32866;50.160;14.768;2022-07-04T00:14:44;99375.22;;;16.90;100.00
46876;BME280;32866;50.160;14.768;2022-07-04T00:17:10;99360.13;;;16.76;100.00
46876;BME280;32866;50.160;14.768;2022-07-04T00:19:35;99374.66;;;16.85;100.00
46876;BME280;32866;50.160;14.768;2022-07-04T00:22:01;99375.78;;;16.79;100.00
46876;BME280;32866;50.160;14.768;2022-07-04T00:24:26;99348.84;;;16.44;100.00
46876;BME280;32866;50.160;14.768;2022-07-04T00:26:51;99365.91;;;16.57;100.00
46876;BME280;32866;50.160;14.768;2022-07-04T00:29:17;99359.22;;;16.64;100.00
46876;BME280;32866;50.160;14.768;2022-07-04T00:31:42;99354.38;;;16.44;100.00
46876;BME280;32866;50.160;14.768;2022-07-04T00:34:07;99358.06;;;16.70;100.00
46876;BME280;32866;50.160;14.768;2022-07-04T00:36:33;99323.13;;;16.38;100.00
46876;BME280;32866;50.160;14.768;2022-07-04T00:38:58;99361.72;;;16.47;100.00
46876;BME280;32866;50.160;14.768;2022-07-04T00:41:24;99363.47;;;16.44;100.00
46876;BME280;32866;50.160;14.768;2022-07-04T00:46:27;99345.94;;;16.32;100.00
46876;BME280;32866;50.160;14.768;2022-07-04T00:48:52;99343.06;;;16.12;100.00
46876;BME280;32866;50.160;14.768;2022-07-04T00:51:17;99358.13;;;16.41;100.00
46876;BME280;32866;50.160;14.768;2022-07-04T00:53:44;99345.56;;;16.10;100.00
46876;BME280;32866;50.160;14.768;2022-07-04T00:56:10;99344.41;;;16.17;100.00
46876;BME280;32866;50.160;14.768;2022-07-04T00:58:36;99347.94;;;16.17;100.00
46876;BME280;32866;50.160;14.768;2022-07-04T01:01:02;99332.41;;;16.05;100.00
46876;BME280;32866;50.160;14.768;2022-07-04T01:03:27;99347.09;;;16.11;100.00
46876;BME280;32866;50.160;14.768;2022-07-04T01:05:52;99360.25;;;16.16;100.00
46876;BME280;32866;50.160;14.768;2022-07-04T01:08:18;99360.25;;;16.16;100.00
46876;BME280;32866;50.160;14.768;2022-07-04T01:10:43;99361.38;;;16.39;100.00
46876;BME280;32866;50.160;14.768;2022-07-04T01:13:19;99358.41;;;16.43;100.00
46876;BME280;32866;50.160;14.768;2022-07-04T01:15:44;99367.66;;;16.40;100.00
46876;BME280;32866;50.160;14.768;2022-07-04T01:18:10;99340.81;;;16.10;100.00
46876;BME280;32866;50.160;14.768;2022-07-04T01:20:35;99373.38;;;16.21;100.00
46876;BME280;32866;50.160;14.768;2022-07-04T01:23:01;99351.88;;;16.10;100.00
46876;BME280;32866;50.160;14.768;2022-07-04T01:25:27;99352.41;;;16.00;100.00
46876;BME280;32866;50.160;14.768;2022-07-04T01:27:52;99367.47;;;15.99;100.00
46876;BME280;32866;50.160;14.768;2022-07-04T01:30:17;99353.66;;;15.84;100.00
46876;BME280;32866;50.160;14.768;2022-07-04T01:32:42;99366.25;;;16.00;100.00
46876;BME280;32866;50.160;14.768;2022-07-04T01:35:08;99340.09;;;15.71;100.00
46876;BME280;32866;50.160;14.768;2022-07-04T01:37:36;99362.03;;;15.89;100.00
46876;BME280;32866;50.160;14.768;2022-07-04T01:40:01;99368.59;;;15.92;100.00
46876;BME280;32866;50.160;14.768;2022-07-04T01:42:26;99370.72;;;15.82;100.00
46876;BME280;32866;50.160;14.768;2022-07-04T01:44:52;99352.16;;;15.73;100.00
46876;BME280;32866;50.160;14.768;2022-07-04T01:47:17;99345.00;;;15.67;100.00
46876;BME280;32866;50.160;14.768;2022-07-04T01:49:42;99359.84;;;15.93;100.00
46876;BME280;32866;50.160;14.768;2022-07-04T01:52:08;99355.84;;;15.94;100.00
46876;BME280;32866;50.160;14.768;2022-07-04T01:54:33;99362.09;;;15.65;100.00
46876;BME280;32866;50.160;14.768;2022-07-04T01:56:58;99369.25;;;15.72;100.00
46876;BME280;32866;50.160;14.768;2022-07-04T01:59:23;99366.91;;;15.55;100.00
46876;BME280;32866;50.160;14.768;2022-07-04T02:02:09;99356.22;;;15.48;100.00
46876;BME280;32866;50.160;14.768;2022-07-04T02:04:34;99383.59;;;15.61;100.00
46876;BME280;32866;50.160;14.768;2022-07-04T02:07:00;99371.09;;;15.51;100.00
46876;BME280;32866;50.160;14.768;2022-07-04T02:09:25;99385.66;;;15.51;100.00
46876;BME280;32866;50.160;14.768;2022-07-04T02:11:50;99386.25;;;15.55;100.00
46876;BME280;32866;50.160;14.768;2022-07-04T02:14:34;99361.31;;;15.26;100.00
46876;BME280;32866;50.160;14.768;2022-07-04T02:17:00;99386.63;;;15.63;100.00
46876;BME280;32866;50.160;14.768;2022-07-04T02:19:25;99399.16;;;15.49;100.00
46876;BME280;32866;50.160;14.768;2022-07-04T02:21:51;99363.47;;;15.21;100.00
46876;BME280;32866;50.160;14.768;2022-07-04T02:24:17;99401.28;;;15.54;100.00
46876;BME280;32866;50.160;14.768;2022-07-04T02:26:42;99388.78;;;15.44;100.00
46876;BME280;32866;50.160;14.768;2022-07-04T02:29:08;99360.09;;;15.27;100.00
46876;BME280;32866;50.160;14.768;2022-07-04T02:31:33;99361.94;;;15.20;100.00
46876;BME280;32866;50.160;14.768;2022-07-04T02:33:58;99376.28;;;15.34;100.00
46876;BME280;32866;50.160;14.768;2022-07-04T02:36:24;99382.16;;;15.27;100.00
46876;BME280;32866;50.160;14.768;2022-07-04T02:38:49;99401.50;;;15.42;100.00
46876;BME280;32866;50.160;14.768;2022-07-04T02:41:14;99392.78;;;15.19;100.00
46876;BME280;32866;50.160;14.768;2022-07-04T02:43:39;99390.84;;;15.10;100.00
46876;BME280;32866;50.160;14.768;2022-07-04T02:46:05;99422.13;;;15.31;100.00
46876;BME280;32866;50.160;14.768;2022-07-04T02:48:30;99386.44;;;15.03;100.00
46876;BME280;32866;50.160;14.768;2022-07-04T02:50:55;99414.31;;;15.30;100.00
46876;BME280;32866;50.160;14.768;2022-07-04T02:53:21;99416.16;;;15.33;100.00
46876;BME280;32866;50.160;14.768;2022-07-04T02:55:46;99429.00;;;15.36;100.00
46876;BME280;32866;50.160;14.768;2022-07-04T02:58:11;99429.44;;;15.44;100.00
46876;BME280;32866;50.160;14.768;2022-07-04T03:00:37;99423.56;;;15.51;100.00
46876;BME280;32866;50.160;14.768;2022-07-04T03:03:02;99436.16;;;15.67;100.00
46876;BME280;32866;50.160;14.768;2022-07-04T03:05:27;99428.19;;;15.45;100.00
46876;BME280;32866;50.160;14.768;2022-07-04T03:07:56;99427.72;;;15.46;100.00
46876;BME280;32866;50.160;14.768;2022-07-04T03:10:22;99436.34;;;15.63;100.00
46876;BME280;32866;50.160;14.768;2022-07-04T03:12:48;99442.00;;;15.69;100.00
46876;BME280;32866;50.160;14.768;2022-07-04T03:15:13;99416.09;;;15.42;100.00
46876;BME280;32866;50.160;14.768;2022-07-04T03:17:39;99434.84;;;15.62;100.00
46876;BME280;32866;50.160;14.768;2022-07-04T03:20:04;99449.09;;;15.61;100.00
46876;BME280;32866;50.160;14.768;2022-07-04T03:22:30;99450.16;;;15.63;100.00
46876;BME280;32866;50.160;14.768;2022-07-04T03:24:55;99452.16;;;15.63;100.00
46876;BME280;32866;50.160;14.768;2022-07-04T03:27:20;99454.56;;;15.70;100.00
46876;BME280;32866;50.160;14.768;2022-07-04T03:29:46;99444.72;;;15.54;100.00
46876;BME280;32866;50.160;14.768;2022-07-04T03:32:11;99460.72;;;15.65;100.00
46876;BME280;32866;50.160;14.768;2022-07-04T03:34:36;99450.69;;;15.76;100.00
46876;BME280;32866;50.160;14.768;2022-07-04T03:37:02;99430.75;;;15.72;100.00
46876;BME280;32866;50.160;14.768;2022-07-04T03:39:27;99441.75;;;15.82;100.00
46876;BME280;32866;50.160;14.768;2022-07-04T03:41:53;99451.34;;;15.95;100.00
46876;BME280;32866;50.160;14.768;2022-07-04T03:44:18;99453.25;;;16.04;100.00
46876;BME280;32866;50.160;14.768;2022-07-04T03:46:44;99447.75;;;16.19;100.00
46876;BME280;32866;50.160;14.768;2022-07-04T03:49:09;99448.69;;;16.16;100.00
46876;BME280;32866;50.160;14.768;2022-07-04T03:51:35;99460.25;;;16.29;100.00
46876;BME280;32866;50.160;14.768;2022-07-04T03:54:00;99458.44;;;16.56;100.00
46876;BME280;32866;50.160;14.768;2022-07-04T03:56:26;99458.50;;;16.77;100.00
46876;BME280;32866;50.160;14.768;2022-07-04T03:58:51;99459.66;;;16.85;100.00
46876;BME280;32866;50.160;14.768;2022-07-04T04:01:19;99460.59;;;16.97;100.00
46876;BME280;32866;50.160;14.768;2022-07-04T04:03:45;99462.50;;;17.05;100.00
46876;BME280;32866;50.160;14.768;2022-07-04T04:06:30;99464.38;;;17.14;100.00
46876;BME280;32866;50.160;14.768;2022-07-04T04:08:55;99470.69;;;17.15;100.00
46876;BME280;32866;50.160;14.768;2022-07-04T04:11:21;99473.06;;;17.22;100.00
46876;BME280;32866;50.160;14.768;2022-07-04T04:13:46;99482.47;;;17.30;100.00
46876;BME280;32866;50.160;14.768;2022-07-04T04:16:12;99486.38;;;17.38;100.00
46876;BME280;32866;50.160;14.768;2022-07-04T04:18:37;99494.09;;;17.34;100.00
46876;BME280;32866;50.160;14.768;2022-07-04T04:21:03;99488.44;;;17.23;100.00
46876;BME280;32866;50.160;14.768;2022-07-04T04:23:28;99492.22;;;17.25;100.00
46876;BME280;32866;50.160;14.768;2022-07-04T04:25:54;99494.41;;;17.36;100.00
46876;BME280;32866;50.160;14.768;2022-07-04T04:28:19;99477.50;;;17.34;100.00
46876;BME280;32866;50.160;14.768;2022-07-04T04:30:44;99485.75;;;17.49;100.00
46876;BME280;32866;50.160;14.768;2022-07-04T04:33:10;99479.31;;;17.37;100.00
46876;BME280;32866;50.160;14.768;2022-07-04T04:35:35;99497.00;;;17.60;100.00
46876;BME280;32866;50.160;14.768;2022-07-04T04:38:00;99500.28;;;17.44;100.00
46876;BME280;32866;50.160;14.768;2022-07-04T04:40:25;99503.09;;;17.29;100.00
46876;BME280;32866;50.160;14.768;2022-07-04T04:42:51;99499.78;;;17.25;100.00
46876;BME280;32866;50.160;14.768;2022-07-04T04:45:16;99493.63;;;17.36;100.00
46876;BME280;32866;50.160;14.768;2022-07-04T04:47:41;99489.22;;;17.09;100.00
46876;BME280;32866;50.160;14.768;2022-07-04T04:50:09;99508.16;;;17.31;100.00
46876;BME280;32866;50.160;14.768;2022-07-04T04:52:37;99507.91;;;17.49;100.00
46876;BME280;32866;50.160;14.768;2022-07-04T04:55:03;99483.72;;;17.29;100.00
46876;BME280;32866;50.160;14.768;2022-07-04T04:57:28;99514.78;;;17.54;100.00
46876;BME280;32866;50.160;14.768;2022-07-04T04:59:54;99522.72;;;17.82;100.00
46876;BME280;32866;50.160;14.768;2022-07-04T05:02:19;99529.75;;;17.83;100.00
46876;BME280;32866;50.160;14.768;2022-07-04T05:04:44;99527.84;;;17.68;100.00
46876;BME280;32866;50.160;14.768;2022-07-04T05:07:10;99529.28;;;17.64;100.00
46876;BME280;32866;50.160;14.768;2022-07-04T05:09:35;99538.00;;;17.56;100.00
46876;BME280;32866;50.160;14.768;2022-07-04T05:12:00;99541.94;;;17.50;100.00
46876;BME280;32866;50.160;14.768;2022-07-04T05:14:25;99528.41;;;17.37;100.00
46876;BME280;32866;50.160;14.768;2022-07-04T05:16:51;99528.50;;;17.28;100.00
46876;BME280;32866;50.160;14.768;2022-07-04T05:19:16;99524.88;;;17.36;100.00
46876;BME280;32866;50.160;14.768;2022-07-04T05:21:41;99550.16;;;17.44;100.00
46876;BME280;32866;50.160;14.768;2022-07-04T05:24:07;99546.78;;;17.55;100.00
46876;BME280;32866;50.160;14.768;2022-07-04T05:26:32;99552.97;;;17.65;100.00
46876;BME280;32866;50.160;14.768;2022-07-04T05:28:57;99547.34;;;17.79;100.00
46876;BME280;32866;50.160;14.768;2022-07-04T05:31:23;99556.50;;;17.86;100.00
46876;BME280;32866;50.160;14.768;2022-07-04T05:33:50;99556.50;;;17.86;100.00
46876;BME280;32866;50.160;14.768;2022-07-04T05:36:16;99558.16;;;17.77;100.00
46876;BME280;32866;50.160;14.768;2022-07-04T05:38:41;99548.53;;;17.73;100.00
46876;BME280;32866;50.160;14.768;2022-07-04T05:41:06;99558.84;;;17.72;100.00
46876;BME280;32866;50.160;14.768;2022-07-04T05:43:32;99552.72;;;17.83;100.00
46876;BME280;32866;50.160;14.768;2022-07-04T05:45:57;99548.50;;;17.88;100.00
46876;BME280;32866;50.160;14.768;2022-07-04T05:48:22;99564.44;;;17.93;100.00
46876;BME280;32866;50.160;14.768;2022-07-04T05:50:48;99552.19;;;17.85;100.00
46876;BME280;32866;50.160;14.768;2022-07-04T05:53:13;99569.16;;;17.87;100.00
46876;BME280;32866;50.160;14.768;2022-07-04T05:55:38;99571.06;;;17.80;100.00
46876;BME280;32866;50.160;14.768;2022-07-04T05:58:04;99558.06;;;17.87;100.00
46876;BME280;32866;50.160;14.768;2022-07-04T06:00:29;99557.53;;;18.03;100.00
46876;BME280;32866;50.160;14.768;2022-07-04T06:02:54;99564.38;;;18.08;100.00
46876;BME280;32866;50.160;14.768;2022-07-04T06:05:20;99567.56;;;18.21;100.00
46876;BME280;32866;50.160;14.768;2022-07-04T06:07:45;99571.13;;;18.48;100.00
46876;BME280;32866;50.160;14.768;2022-07-04T06:10:10;99578.97;;;18.49;100.00
46876;BME280;32866;50.160;14.768;2022-07-04T06:12:36;99588.25;;;18.67;100.00
46876;BME280;32866;50.160;14.768;2022-07-04T06:15:02;99594.84;;;18.75;100.00
46876;BME280;32866;50.160;14.768;2022-07-04T06:17:27;99563.03;;;18.44;100.00
46876;BME280;32866;50.160;14.768;2022-07-04T06:19:53;99590.44;;;18.83;98.91
46876;BME280;32866;50.160;14.768;2022-07-04T06:22:18;99584.31;;;18.79;99.39
46876;BME280;32866;50.160;14.768;2022-07-04T06:24:43;99597.63;;;18.96;98.50
46876;BME280;32866;50.160;14.768;2022-07-04T06:27:08;99581.69;;;18.70;100.00
46876;BME280;32866;50.160;14.768;2022-07-04T06:29:34;99599.44;;;18.78;100.00
46876;BME280;32866;50.160;14.768;2022-07-04T06:31:59;99586.56;;;19.01;97.38
46876;BME280;32866;50.160;14.768;2022-07-04T06:34:24;99591.53;;;18.91;99.42
46876;BME280;32866;50.160;14.768;2022-07-04T06:37:08;99596.09;;;18.95;99.46
46876;BME280;32866;50.160;14.768;2022-07-04T06:39:33;99607.41;;;19.17;97.83
46876;BME280;32866;50.160;14.768;2022-07-04T06:41:59;99617.50;;;19.20;96.67
46876;BME280;32866;50.160;14.768;2022-07-04T06:44:24;99606.72;;;19.28;96.44
46876;BME280;32866;50.160;14.768;2022-07-04T06:46:49;99614.66;;;19.41;98.97
46876;BME280;32866;50.160;14.768;2022-07-04T06:49:16;99588.22;;;19.19;96.43
46876;BME280;32866;50.160;14.768;2022-07-04T06:51:41;99609.16;;;19.52;93.82
46876;BME280;32866;50.160;14.768;2022-07-04T06:54:06;99606.69;;;19.54;94.67
46876;BME280;32866;50.160;14.768;2022-07-04T06:56:32;99568.09;;;19.30;91.98
46876;BME280;32866;50.160;14.768;2022-07-04T06:58:57;99613.22;;;19.51;95.00
46876;BME280;32866;50.160;14.768;2022-07-04T07:01:22;99610.69;;;19.48;93.98
46876;BME280;32866;50.160;14.768;2022-07-04T07:03:47;99613.22;;;19.51;94.23
46876;BME280;32866;50.160;14.768;2022-07-04T07:06:13;99575.88;;;19.58;90.89
46876;BME280;32866;50.160;14.768;2022-07-04T07:08:38;99578.78;;;19.75;89.54
46876;BME280;32866;50.160;14.768;2022-07-04T07:11:03;99593.06;;;19.99;93.95
46876;BME280;32866;50.160;14.768;2022-07-04T07:13:46;99576.81;;;19.87;92.41
46876;BME280;32866;50.160;14.768;2022-07-04T07:16:13;99588.81;;;20.10;88.59
46876;BME280;32866;50.160;14.768;2022-07-04T07:18:38;99596.50;;;20.37;86.80
46876;BME280;32866;50.160;14.768;2022-07-04T07:21:03;99580.38;;;20.53;90.09
46876;BME280;32866;50.160;14.768;2022-07-04T07:23:29;99595.84;;;20.71;87.39
46876;BME280;32866;50.160;14.768;2022-07-04T07:25:54;99576.88;;;20.69;86.40
46876;BME280;32866;50.160;14.768;2022-07-04T07:28:19;99598.19;;;20.95;87.75
46876;BME280;32866;50.160;14.768;2022-07-04T07:30:45;99571.53;;;20.60;86.72
46876;BME280;32866;50.160;14.768;2022-07-04T07:33:10;99600.44;;;20.85;87.27
46876;BME280;32866;50.160;14.768;2022-07-04T07:35:36;99591.59;;;20.87;85.49
46876;BME280;32866;50.160;14.768;2022-07-04T07:38:01;99594.38;;;20.98;85.34
46876;BME280;32866;50.160;14.768;2022-07-04T07:40:27;99577.66;;;21.04;84.20
46876;BME280;32866;50.160;14.768;2022-07-04T07:42:52;99594.13;;;21.30;88.65
46876;BME280;32866;50.160;14.768;2022-07-04T07:45:19;99583.72;;;21.25;83.40
46876;BME280;32866;50.160;14.768;2022-07-04T07:47:45;99574.38;;;21.51;81.01
46876;BME280;32866;50.160;14.768;2022-07-04T07:50:10;99596.88;;;21.75;78.95
46876;BME280;32866;50.160;14.768;2022-07-04T07:52:36;99589.03;;;21.57;81.27
46876;BME280;32866;50.160;14.768;2022-07-04T07:55:02;99595.66;;;21.54;82.70
46876;BME280;32866;50.160;14.768;2022-07-04T07:57:28;99596.91;;;21.58;79.91
46876;BME280;32866;50.160;14.768;2022-07-04T07:59:53;99594.84;;;21.70;85.61
46876;BME280;32866;50.160;14.768;2022-07-04T08:02:19;99586.69;;;21.83;79.91
46876;BME280;32866;50.160;14.768;2022-07-04T08:04:44;99612.78;;;21.92;77.86
46876;BME280;32866;50.160;14.768;2022-07-04T08:07:10;99607.78;;;21.73;82.31
46876;BME280;32866;50.160;14.768;2022-07-04T08:09:39;99623.50;;;21.76;78.29
46876;BME280;32866;50.160;14.768;2022-07-04T08:12:05;99623.00;;;21.72;79.65
46876;BME280;32866;50.160;14.768;2022-07-04T08:14:33;99621.72;;;21.73;81.38
46876;BME280;32866;50.160;14.768;2022-07-04T08:16:58;99622.25;;;21.66;82.01
46876;BME280;32866;50.160;14.768;2022-07-04T08:19:24;99597.69;;;21.59;78.93
46876;BME280;32866;50.160;14.768;2022-07-04T08:21:51;99625.00;;;21.77;79.04
46876;BME280;32866;50.160;14.768;2022-07-04T08:24:17;99612.59;;;21.73;78.61
46876;BME280;32866;50.160;14.768;2022-07-04T08:26:42;99612.34;;;21.65;77.01
46876;BME280;32866;50.160;14.768;2022-07-04T08:29:17;99622.22;;;21.72;81.96
46876;BME280;32866;50.160;14.768;2022-07-04T08:31:43;99590.81;;;21.71;78.78
46876;BME280;32866;50.160;14.768;2022-07-04T08:34:09;99620.69;;;21.88;78.19
46876;BME280;32866;50.160;14.768;2022-07-04T08:36:34;99617.03;;;22.21;77.68
46876;BME280;32866;50.160;14.768;2022-07-04T08:39:00;99608.63;;;22.27;80.67
46876;BME280;32866;50.160;14.768;2022-07-04T08:41:26;99612.13;;;22.44;73.96
46876;BME280;32866;50.160;14.768;2022-07-04T08:43:55;99604.03;;;22.82;76.12
46876;BME280;32866;50.160;14.768;2022-07-04T08:46:23;99605.56;;;23.19;74.13
46876;BME280;32866;50.160;14.768;2022-07-04T08:48:52;99606.66;;;23.41;71.67
46876;BME280;32866;50.160;14.768;2022-07-04T08:51:28;99589.88;;;23.10;72.08
46876;BME280;32866;50.160;14.768;2022-07-04T08:54:00;99593.59;;;22.88;73.97
46876;BME280;32866;50.160;14.768;2022-07-04T08:56:27;99590.69;;;22.64;73.79
46876;BME280;32866;50.160;14.768;2022-07-04T08:59:13;99610.19;;;22.75;76.25
46876;BME280;32866;50.160;14.768;2022-07-04T09:01:40;99598.41;;;22.46;73.40
46876;BME280;32866;50.160;14.768;2022-07-04T09:04:08;99616.94;;;22.44;77.78
46876;BME280;32866;50.160;14.768;2022-07-04T09:06:34;99611.69;;;22.76;73.62
46876;BME280;32866;50.160;14.768;2022-07-04T09:09:00;99634.06;;;22.70;73.41
46876;BME280;32866;50.160;14.768;2022-07-04T09:11:26;99633.97;;;22.40;78.14
46876;BME280;32866;50.160;14.768;2022-07-04T09:13:51;99631.06;;;22.63;75.35
46876;BME280;32866;50.160;14.768;2022-07-04T09:16:16;99638.03;;;22.39;74.58
46876;BME280;32866;50.160;14.768;2022-07-04T09:18:42;99616.16;;;22.54;76.13
46876;BME280;32866;50.160;14.768;2022-07-04T09:21:09;99634.63;;;22.63;77.43
46876;BME280;32866;50.160;14.768;2022-07-04T09:23:41;99630.41;;;22.87;77.33
46876;BME280;32866;50.160;14.768;2022-07-04T09:26:11;99631.81;;;23.05;71.78
46876;BME280;32866;50.160;14.768;2022-07-04T09:28:38;99631.94;;;22.88;74.33
46876;BME280;32866;50.160;14.768;2022-07-04T09:31:14;99630.13;;;22.96;77.25
46876;BME280;32866;50.160;14.768;2022-07-04T09:33:53;99610.16;;;23.17;77.14
46876;BME280;32866;50.160;14.768;2022-07-04T09:36:22;99639.69;;;23.42;72.49
46876;BME280;32866;50.160;14.768;2022-07-04T09:39:07;99630.00;;;23.13;75.51
46876;BME280;32866;50.160;14.768;2022-07-04T09:44:19;99629.53;;;23.94;69.54
46876;BME280;32866;50.160;14.768;2022-07-04T09:46:45;99621.66;;;24.17;69.48
46876;BME280;32866;50.160;14.768;2022-07-04T09:49:11;99620.25;;;23.56;68.97
46876;BME280;32866;50.160;14.768;2022-07-04T09:51:41;99626.84;;;23.83;68.06
46876;BME280;32866;50.160;14.768;2022-07-04T09:54:25;99607.28;;;23.28;71.60
46876;BME280;32866;50.160;14.768;2022-07-04T09:56:57;99619.63;;;23.08;72.77
46876;BME280;32866;50.160;14.768;2022-07-04T09:59:24;99602.72;;;22.89;73.47
46876;BME280;32866;50.160;14.768;2022-07-04T10:01:50;99609.75;;;23.01;74.05
46876;BME280;32866;50.160;14.768;2022-07-04T10:04:16;99618.25;;;23.20;72.15
46876;BME280;32866;50.160;14.768;2022-07-04T10:06:43;99608.13;;;23.17;73.98
46876;BME280;32866;50.160;14.768;2022-07-04T10:09:15;99616.47;;;23.23;73.45
46876;BME280;32866;50.160;14.768;2022-07-04T10:11:42;99597.31;;;23.32;70.80
46876;BME280;32866;50.160;14.768;2022-07-04T10:14:09;99604.22;;;23.56;73.36
46876;BME280;32866;50.160;14.768;2022-07-04T10:16:36;99587.09;;;23.41;72.83
46876;BME280;32866;50.160;14.768;2022-07-04T10:19:02;99572.13;;;23.63;71.88
46876;BME280;32866;50.160;14.768;2022-07-04T10:21:29;99571.25;;;23.49;74.20
46876;BME280;32866;50.160;14.768;2022-07-04T10:23:54;99595.13;;;23.75;70.33
46876;BME280;32866;50.160;14.768;2022-07-04T10:26:21;99589.78;;;23.77;72.48
46876;BME280;32866;50.160;14.768;2022-07-04T10:28:49;99581.16;;;23.50;72.22
46876;BME280;32866;50.160;14.768;2022-07-04T10:31:16;99580.59;;;23.82;75.05
46876;BME280;32866;50.160;14.768;2022-07-04T10:33:43;99556.94;;;23.58;76.07
46876;BME280;32866;50.160;14.768;2022-07-04T10:36:23;99569.94;;;23.75;73.35
46876;BME280;32866;50.160;14.768;2022-07-04T10:38:58;99574.91;;;24.31;70.49
46876;BME280;32866;50.160;14.768;2022-07-04T10:41:25;99571.19;;;24.23;73.18
46876;BME280;32866;50.160;14.768;2022-07-04T10:43:58;99577.47;;;24.48;68.78
46876;BME280;32866;50.160;14.768;2022-07-04T10:46:37;99547.66;;;24.13;70.68
46876;BME280;32866;50.160;14.768;2022-07-04T10:49:17;99564.75;;;24.09;70.92
46876;BME280;32866;50.160;14.768;2022-07-04T10:51:51;99565.91;;;24.38;74.06
46876;BME280;32866;50.160;14.768;2022-07-04T10:54:36;99570.22;;;24.39;71.28
46876;BME280;32866;50.160;14.768;2022-07-04T10:59:35;99594.13;;;24.78;68.24
46876;BME280;32866;50.160;14.768;2022-07-04T11:04:54;99590.56;;;24.78;69.75
46876;BME280;32866;50.160;14.768;2022-07-04T11:17:51;99580.25;;;23.66;70.51
46876;BME280;32866;50.160;14.768;2022-07-04T11:20:20;99590.84;;;23.74;71.78
46876;BME280;32866;50.160;14.768;2022-07-04T11:22:45;99599.00;;;23.71;73.06
46876;BME280;32866;50.160;14.768;2022-07-04T11:25:11;99590.13;;;23.67;74.32
46876;BME280;32866;50.160;14.768;2022-07-04T11:27:37;99585.00;;;23.71;73.35
46876;BME280;32866;50.160;14.768;2022-07-04T11:30:03;99566.88;;;23.53;73.58
46876;BME280;32866;50.160;14.768;2022-07-04T11:32:33;99571.56;;;24.14;71.03
46876;BME280;32866;50.160;14.768;2022-07-04T11:34:59;99569.84;;;24.11;72.88
46876;BME280;32866;50.160;14.768;2022-07-04T11:37:25;99592.16;;;24.73;70.58
46876;BME280;32866;50.160;14.768;2022-07-04T11:39:52;99592.00;;;24.85;72.67
46876;BME280;32866;50.160;14.768;2022-07-04T11:42:18;99570.34;;;24.85;69.88
46876;BME280;32866;50.160;14.768;2022-07-04T11:45:02;99592.25;;;25.00;66.26
46876;BME280;32866;50.160;14.768;2022-07-04T11:47:38;99591.72;;;24.69;68.17
46876;BME280;32866;50.160;14.768;2022-07-04T11:50:12;99587.41;;;24.68;67.63
46876;BME280;32866;50.160;14.768;2022-07-04T11:52:44;99592.22;;;24.87;65.52
46876;BME280;32866;50.160;14.768;2022-07-04T11:55:12;99609.31;;;25.02;67.73
46876;BME280;32866;50.160;14.768;2022-07-04T11:57:40;99603.41;;;25.06;66.27
46876;BME280;32866;50.160;14.768;2022-07-04T12:00:10;99588.19;;;24.69;69.18
46876;BME280;32866;50.160;14.768;2022-07-04T12:02:36;99600.66;;;24.49;67.50
46876;BME280;32866;50.160;14.768;2022-07-04T12:05:05;99589.88;;;24.53;69.19
46876;BME280;32866;50.160;14.768;2022-07-04T12:07:32;99596.53;;;24.50;68.77
46876;BME280;32866;50.160;14.768;2022-07-04T12:10:07;99599.25;;;24.36;69.58
46876;BME280;32866;50.160;14.768;2022-07-04T12:12:33;99605.03;;;24.63;74.59
46876;BME280;32866;50.160;14.768;2022-07-04T12:17:30;99608.63;;;24.20;68.91
46876;BME280;32866;50.160;14.768;2022-07-04T12:19:57;99604.69;;;24.10;68.20
46876;BME280;32866;50.160;14.768;2022-07-04T12:22:49;99598.06;;;24.51;73.30
46876;BME280;32866;50.160;14.768;2022-07-04T12:27:54;99583.34;;;25.87;63.04
46876;BME280;32866;50.160;14.768;2022-07-04T12:30:19;99580.34;;;26.12;66.65
46876;BME280;32866;50.160;14.768;2022-07-04T12:32:47;99591.75;;;26.27;62.14
46876;BME280;32866;50.160;14.768;2022-07-04T12:38:06;99558.03;;;26.41;61.43
46876;BME280;32866;50.160;14.768;2022-07-04T12:40:33;99532.09;;;27.11;64.51
46876;BME280;32866;50.160;14.768;2022-07-04T12:42:59;99571.69;;;27.34;58.07
46876;BME280;32866;50.160;14.768;2022-07-04T12:45:25;99568.13;;;26.92;60.95
46876;BME280;32866;50.160;14.768;2022-07-04T12:47:51;99549.00;;;26.35;59.00
46876;BME280;32866;50.160;14.768;2022-07-04T12:50:29;99545.16;;;25.84;64.01
46876;BME280;32866;50.160;14.768;2022-07-04T12:52:54;99544.31;;;25.89;66.47
46876;BME280;32866;50.160;14.768;2022-07-04T12:55:20;99558.19;;;26.91;59.79
46876;BME280;32866;50.160;14.768;2022-07-04T12:57:45;99521.75;;;26.43;57.93
46876;BME280;32866;50.160;14.768;2022-07-04T13:00:11;99548.59;;;27.07;57.32
46876;BME280;32866;50.160;14.768;2022-07-04T13:02:37;99550.81;;;27.51;55.26
46876;BME280;32866;50.160;14.768;2022-07-04T13:05:03;99551.59;;;27.59;51.64
46876;BME280;32866;50.160;14.768;2022-07-04T13:07:28;99546.38;;;27.13;48.37
46876;BME280;32866;50.160;14.768;2022-07-04T13:09:54;99515.34;;;26.77;48.22
46876;BME280;32866;50.160;14.768;2022-07-04T13:12:19;99507.44;;;26.96;54.09